Time;durP1;ratioP1;P1;durP2;ratioP2;P2;SDS_P1;SDS_P2;PMS_P1;PMS_P2;Temp;Humidity;BMP_temperature;BMP_pressure;BME280_temperature;BME280_humidity;BME280_pressure;Samples;Min_cycle;Max_cycle;Signal;HPM_P1;HPM_P2
2022/08/15 00:00:41;;;;;;;5.22;4.65;;;;;;;;;;1617013;30;21725;-64
2022/08/15 00:01:36;;;;;;;5.18;4.80;;;;;;;;;;1618020;30;22009;-62
2022/08/15 00:02:28;;;;;;;4.57;4.18;;;;;;;;;;1616173;30;22013;-62
2022/08/15 00:03:27;;;;;;;5.40;4.68;;;;;;;;;;1617352;30;21627;-62
2022/08/15 00:04:19;;;;;;;5.15;4.53;;;;;;;;;;1612697;30;21683;-65
2022/08/15 00:05:15;;;;;;;5.30;4.78;;;;;;;;;;1619082;30;21754;-62
2022/08/15 00:06:12;;;;;;;5.53;4.20;;;;;;;;;;1618782;30;21653;-63
2022/08/15 00:07:04;;;;;;;6.63;4.93;;;;;;;;;;1618482;30;21633;-63
2022/08/15 00:07:56;;;;;;;4.95;4.50;;;;;;;;;;1617725;30;21898;-63
2022/08/15 00:08:53;;;;;;;4.55;4.15;;;;;;;;;;1614765;30;21616;-62
2022/08/15 00:09:45;;;;;;;3.88;3.65;;;;;;;;;;1612924;30;21649;-63
2022/08/15 00:10:36;;;;;;;6.32;4.47;;;;;;;;;;1613984;30;21761;-62
2022/08/15 00:11:33;;;;;;;4.70;4.30;;;;;;;;;;1613946;30;21707;-63
2022/08/15 00:12:25;;;;;;;4.75;4.30;;;;;;;;;;1618368;30;21836;-62
2022/08/15 00:13:21;;;;;;;4.95;4.57;;;;;;;;;;1617739;30;21617;-63
2022/08/15 00:14:17;;;;;;;6.03;4.28;;;;;;;;;;1614347;30;21587;-62
2022/08/15 00:15:13;;;;;;;4.13;3.80;;;;;;;;;;1617263;30;22368;-62
2022/08/15 00:16:05;;;;;;;4.65;3.67;;;;;;;;;;1614455;30;22043;-62
2022/08/15 00:16:58;;;;;;;4.95;4.55;;;;;;;;;;1618290;30;21659;-63
2022/08/15 00:17:49;;;;;;;4.45;4.05;;;;;;;;;;1623566;30;21905;-62
2022/08/15 00:18:43;;;;;;;4.30;3.80;;;;;;;;;;1623732;30;21751;-62
2022/08/15 00:19:34;;;;;;;3.83;3.60;;;;;;;;;;1621640;30;21939;-63
2022/08/15 00:20:27;;;;;;;4.53;4.05;;;;;;;;;;1618748;30;21780;-63
2022/08/15 00:21:20;;;;;;;4.03;3.72;;;;;;;;;;1618602;30;21600;-62
2022/08/15 00:22:17;;;;;;;4.25;3.95;;;;;;;;;;1618189;30;22375;-64
2022/08/15 00:23:10;;;;;;;4.65;4.25;;;;;;;;;;1618834;30;21779;-63
2022/08/15 00:24:04;;;;;;;4.47;4.07;;;;;;;;;;1618012;30;22312;-64
2022/08/15 00:24:55;;;;;;;4.10;3.80;;;;;;;;;;1617825;30;21598;-63
2022/08/15 00:25:49;;;;;;;4.45;4.05;;;;;;;;;;1619212;30;21738;-60
2022/08/15 00:26:42;;;;;;;3.88;3.67;;;;;;;;;;1617800;30;22506;-60
2022/08/15 00:27:33;;;;;;;3.85;3.50;;;;;;;;;;1617758;30;21673;-60
2022/08/15 00:28:26;;;;;;;3.90;3.60;;;;;;;;;;1618601;30;22534;-61
2022/08/15 00:29:20;;;;;;;4.18;3.78;;;;;;;;;;1617946;30;21685;-60
2022/08/15 00:30:13;;;;;;;8.57;4.10;;;;;;;;;;1617749;30;22331;-61
2022/08/15 00:31:06;;;;;;;3.65;3.45;;;;;;;;;;1615844;30;21620;-60
2022/08/15 00:31:59;;;;;;;4.10;3.75;;;;;;;;;;1617787;30;21696;-60
2022/08/15 00:32:54;;;;;;;5.28;3.90;;;;;;;;;;1617736;30;22609;-60
2022/08/15 00:33:46;;;;;;;4.13;3.83;;;;;;;;;;1617892;30;21617;-60
2022/08/15 00:34:37;;;;;;;5.13;3.47;;;;;;;;;;1617896;30;21673;-60
2022/08/15 00:35:36;;;;;;;3.78;3.58;;;;;;;;;;1618127;30;21668;-60
2022/08/15 00:36:30;;;;;;;4.07;3.58;;;;;;;;;;1615499;30;21689;-59
2022/08/15 00:37:21;;;;;;;4.13;3.55;;;;;;;;;;1618355;30;22140;-59
2022/08/15 00:38:17;;;;;;;4.00;3.30;;;;;;;;;;1617985;30;21761;-60
2022/08/15 00:39:09;;;;;;;3.40;3.10;;;;;;;;;;1618701;30;21586;-60
2022/08/15 00:40:01;;;;;;;3.83;3.45;;;;;;;;;;1618785;30;21881;-61
2022/08/15 00:42:09;;;;;;;3.75;3.45;;;;;;;;;;1617672;30;22002;-60
2022/08/15 00:43:03;;;;;;;3.60;3.30;;;;;;;;;;1618827;30;21624;-61
2022/08/15 00:43:58;;;;;;;3.30;3.10;;;;;;;;;;1617322;30;22851;-61
2022/08/15 00:44:54;;;;;;;4.55;3.60;;;;;;;;;;1617524;30;21614;-60
2022/08/15 00:45:46;;;;;;;7.55;3.35;;;;;;;;;;1618651;30;22626;-60
2022/08/15 00:46:39;;;;;;;4.47;3.25;;;;;;;;;;1617627;30;21633;-61
2022/08/15 00:47:31;;;;;;;5.72;3.00;;;;;;;;;;1617742;30;22131;-60
2022/08/15 00:49:35;;;;;;;5.20;3.17;;;;;;;;;;1617215;30;22044;-60
2022/08/15 00:50:27;;;;;;;3.38;2.83;;;;;;;;;;1613729;30;21878;-60
2022/08/15 00:51:25;;;;;;;3.97;3.58;;;;;;;;;;1618909;30;22463;-59
2022/08/15 00:52:24;;;;;;;3.58;3.38;;;;;;;;;;1618012;30;21660;-60
2022/08/15 00:53:16;;;;;;;5.40;3.10;;;;;;;;;;1614247;30;22471;-60
2022/08/15 00:54:14;;;;;;;3.83;2.92;;;;;;;;;;1618131;30;21622;-60
2022/08/15 00:55:13;;;;;;;3.20;3.00;;;;;;;;;;1615432;30;21580;-60
2022/08/15 00:56:07;;;;;;;3.10;2.80;;;;;;;;;;1618062;30;22462;-60
2022/08/15 00:57:03;;;;;;;3.42;3.22;;;;;;;;;;1617613;30;21629;-60
2022/08/15 00:57:55;;;;;;;3.00;2.83;;;;;;;;;;1617645;30;21676;-60
2022/08/15 00:58:48;;;;;;;5.90;2.63;;;;;;;;;;1618603;30;22460;-60
2022/08/15 00:59:44;;;;;;;3.13;2.92;;;;;;;;;;1617490;30;21676;-59
2022/08/15 01:00:41;;;;;;;4.63;2.78;;;;;;;;;;1617980;30;22467;-60
2022/08/15 01:01:33;;;;;;;7.28;3.40;;;;;;;;;;1616213;30;21603;-60
2022/08/15 01:02:31;;;;;;;5.35;3.63;;;;;;;;;;1618403;30;21779;-60
2022/08/15 01:03:27;;;;;;;8.57;2.63;;;;;;;;;;1618746;30;21775;-60
2022/08/15 01:04:21;;;;;;;4.50;3.25;;;;;;;;;;1617836;30;21592;-60
2022/08/15 01:05:14;;;;;;;2.85;2.53;;;;;;;;;;1618794;30;22651;-60
2022/08/15 01:06:06;;;;;;;4.68;2.53;;;;;;;;;;1619163;30;21623;-61
2022/08/15 01:06:59;;;;;;;3.30;3.03;;;;;;;;;;1619389;30;21883;-60
2022/08/15 01:07:51;;;;;;;3.10;2.85;;;;;;;;;;1618582;30;21707;-60
2022/08/15 01:08:46;;;;;;;2.72;2.53;;;;;;;;;;1618840;30;22533;-60
2022/08/15 01:09:39;;;;;;;3.05;2.70;;;;;;;;;;1619812;30;22656;-60
2022/08/15 01:10:31;;;;;;;3.05;2.80;;;;;;;;;;1618316;30;22071;-59
2022/08/15 01:11:28;;;;;;;3.15;2.50;;;;;;;;;;1618925;30;21609;-60
2022/08/15 01:12:23;;;;;;;2.92;2.65;;;;;;;;;;1619712;30;22370;-60
2022/08/15 01:13:15;;;;;;;3.97;2.97;;;;;;;;;;1618377;30;21916;-60
2022/08/15 01:14:07;;;;;;;2.80;2.60;;;;;;;;;;1619076;30;21812;-60
2022/08/15 01:15:05;;;;;;;2.72;2.53;;;;;;;;;;1619482;30;22557;-60
2022/08/15 01:15:56;;;;;;;3.30;3.00;;;;;;;;;;1617485;30;22252;-60
2022/08/15 01:16:49;;;;;;;3.55;3.13;;;;;;;;;;1616786;30;21665;-60
2022/08/15 01:17:42;;;;;;;2.72;2.50;;;;;;;;;;1617035;30;21620;-60
2022/08/15 01:18:35;;;;;;;3.60;2.97;;;;;;;;;;1619615;30;22496;-60
2022/08/15 01:19:31;;;;;;;3.00;2.70;;;;;;;;;;1619245;30;21964;-59
2022/08/15 01:20:26;;;;;;;2.65;2.45;;;;;;;;;;1619741;30;21696;-60
2022/08/15 01:21:30;;;;;;;2.63;2.42;;;;;;;;;;1618532;30;21648;-59
2022/08/15 01:22:51;;;;;;;2.63;2.42;;;;;;;;;;1619330;30;21742;-59
2022/08/15 01:23:58;;;;;;;7.93;2.80;;;;;;;;;;1618821;30;21581;-59
2022/08/15 01:25:03;;;;;;;2.92;2.72;;;;;;;;;;1615808;30;21981;-60
2022/08/15 01:26:00;;;;;;;3.45;2.63;;;;;;;;;;1616385;30;22418;-60
2022/08/15 01:26:52;;;;;;;2.65;2.45;;;;;;;;;;1619173;30;21614;-60
2022/08/15 01:27:51;;;;;;;2.70;2.50;;;;;;;;;;1618470;30;21707;-60
2022/08/15 01:28:45;;;;;;;3.17;2.92;;;;;;;;;;1615138;30;21664;-60
2022/08/15 01:29:37;;;;;;;2.70;2.55;;;;;;;;;;1616901;30;22139;-60
2022/08/15 01:30:34;;;;;;;2.45;2.30;;;;;;;;;;1619055;30;21945;-59
2022/08/15 01:31:26;;;;;;;2.40;2.30;;;;;;;;;;1619598;30;21723;-60
2022/08/15 01:32:18;;;;;;;3.25;2.95;;;;;;;;;;1618689;30;21612;-60
2022/08/15 01:33:11;;;;;;;2.70;1.98;;;;;;;;;;1618924;30;21802;-60
2022/08/15 01:34:03;;;;;;;3.53;2.88;;;;;;;;;;1619335;30;21787;-59
2022/08/15 01:34:55;;;;;;;2.55;2.35;;;;;;;;;;1618196;30;21733;-59
2022/08/15 01:35:48;;;;;;;2.38;2.28;;;;;;;;;;1618576;30;21969;-60
2022/08/15 01:36:41;;;;;;;2.45;2.22;;;;;;;;;;1617149;30;21766;-59
2022/08/15 01:37:32;;;;;;;3.40;2.55;;;;;;;;;;1616926;30;22308;-61
2022/08/15 01:38:30;;;;;;;2.80;2.60;;;;;;;;;;1618932;30;21661;-59
2022/08/15 01:39:29;;;;;;;2.72;2.28;;;;;;;;;;1619603;30;21675;-60
2022/08/15 01:40:30;;;;;;;2.70;2.50;;;;;;;;;;1618587;30;21641;-59
2022/08/15 01:41:30;;;;;;;2.30;2.10;;;;;;;;;;1618996;30;21666;-59
2022/08/15 01:42:29;;;;;;;9.80;2.70;;;;;;;;;;1613733;30;21668;-60
2022/08/15 01:43:27;;;;;;;2.80;2.60;;;;;;;;;;1615275;30;22517;-60
2022/08/15 01:44:26;;;;;;;2.80;2.50;;;;;;;;;;1619470;30;21897;-60
2022/08/15 01:45:22;;;;;;;1.95;1.85;;;;;;;;;;1618793;30;21769;-60
2022/08/15 01:46:14;;;;;;;5.40;1.85;;;;;;;;;;1618787;30;22112;-60
2022/08/15 01:47:14;;;;;;;2.33;2.22;;;;;;;;;;1617970;30;22284;-60
2022/08/15 01:48:14;;;;;;;2.30;2.17;;;;;;;;;;1614951;30;21607;-60
2022/08/15 01:49:14;;;;;;;2.00;1.90;;;;;;;;;;1618616;30;22084;-60
2022/08/15 01:50:11;;;;;;;2.47;2.33;;;;;;;;;;1618895;30;21588;-60
2022/08/15 01:51:06;;;;;;;2.25;2.10;;;;;;;;;;1614789;30;22278;-60
2022/08/15 01:52:01;;;;;;;2.30;2.20;;;;;;;;;;1614403;30;21752;-59
2022/08/15 01:53:01;;;;;;;3.90;2.40;;;;;;;;;;1612866;30;21610;-60
2022/08/15 01:53:59;;;;;;;2.60;2.35;;;;;;;;;;1614737;30;22464;-60
2022/08/15 01:54:53;;;;;;;3.30;2.40;;;;;;;;;;1618261;30;22655;-61
2022/08/15 01:55:51;;;;;;;2.35;2.15;;;;;;;;;;1615774;30;21787;-59
2022/08/15 01:56:45;;;;;;;3.53;2.65;;;;;;;;;;1618659;30;22877;-60
2022/08/15 01:57:37;;;;;;;2.60;2.08;;;;;;;;;;1618505;30;22052;-60
2022/08/15 01:58:30;;;;;;;5.53;2.30;;;;;;;;;;1619345;30;21641;-59
2022/08/15 01:59:24;;;;;;;4.47;2.40;;;;;;;;;;1618561;30;21758;-60
2022/08/15 02:00:17;;;;;;;2.13;2.00;;;;;;;;;;1619017;30;21659;-60
2022/08/15 02:01:14;;;;;;;1.95;1.85;;;;;;;;;;1618988;30;22570;-60
2022/08/15 02:02:09;;;;;;;2.53;2.35;;;;;;;;;;1618461;30;21677;-61
2022/08/15 02:03:02;;;;;;;2.25;2.03;;;;;;;;;;1618912;30;21850;-59
2022/08/15 02:03:54;;;;;;;1.98;1.80;;;;;;;;;;1615726;30;21749;-59
2022/08/15 02:04:45;;;;;;;2.47;2.28;;;;;;;;;;1614959;30;21625;-59
2022/08/15 02:05:40;;;;;;;2.03;1.90;;;;;;;;;;1618769;30;21700;-60
2022/08/15 02:06:31;;;;;;;3.50;2.47;;;;;;;;;;1619402;30;21624;-60
2022/08/15 02:07:28;;;;;;;2.38;2.17;;;;;;;;;;1618858;30;21688;-60
2022/08/15 02:08:20;;;;;;;2.40;2.20;;;;;;;;;;1617983;30;21624;-59
2022/08/15 02:09:17;;;;;;;1.88;1.77;;;;;;;;;;1615735;30;22228;-60
2022/08/15 02:10:08;;;;;;;2.25;2.05;;;;;;;;;;1619255;30;21590;-60
2022/08/15 02:11:01;;;;;;;2.00;1.90;;;;;;;;;;1619548;30;22006;-60
2022/08/15 02:11:55;;;;;;;4.22;2.17;;;;;;;;;;1619152;30;22675;-60
2022/08/15 02:12:48;;;;;;;5.53;2.13;;;;;;;;;;1618535;30;22627;-60
2022/08/15 02:13:41;;;;;;;2.17;2.08;;;;;;;;;;1619054;30;21613;-59
2022/08/15 02:14:35;;;;;;;2.47;2.28;;;;;;;;;;1618344;30;21758;-60
2022/08/15 02:15:27;;;;;;;2.20;2.00;;;;;;;;;;1618730;30;21975;-60
2022/08/15 02:16:19;;;;;;;2.00;1.80;;;;;;;;;;1619271;30;21626;-59
2022/08/15 02:17:12;;;;;;;6.50;1.70;;;;;;;;;;1618610;30;22020;-60
2022/08/15 02:18:03;;;;;;;7.50;2.28;;;;;;;;;;1618328;30;21739;-60
2022/08/15 02:18:56;;;;;;;2.97;1.90;;;;;;;;;;1618861;30;21638;-59
2022/08/15 02:19:49;;;;;;;2.28;2.08;;;;;;;;;;1618354;30;21650;-60
2022/08/15 02:20:42;;;;;;;4.35;1.80;;;;;;;;;;1624749;30;21607;-59
2022/08/15 02:21:33;;;;;;;5.10;1.90;;;;;;;;;;1624814;30;21755;-59
2022/08/15 02:22:26;;;;;;;2.28;1.83;;;;;;;;;;1620512;30;22787;-60
2022/08/15 02:23:19;;;;;;;2.05;1.60;;;;;;;;;;1619261;30;21647;-60
2022/08/15 02:24:16;;;;;;;2.40;2.20;;;;;;;;;;1618420;30;21663;-59
2022/08/15 02:25:09;;;;;;;1.90;1.80;;;;;;;;;;1618808;30;22608;-59
2022/08/15 02:26:06;;;;;;;2.00;1.90;;;;;;;;;;1619299;30;21857;-60
2022/08/15 02:26:57;;;;;;;2.45;1.83;;;;;;;;;;1618331;30;21601;-59
2022/08/15 02:27:50;;;;;;;3.15;1.75;;;;;;;;;;1617548;30;21829;-60
2022/08/15 02:28:44;;;;;;;2.00;1.90;;;;;;;;;;1619055;30;21627;-61
2022/08/15 02:29:36;;;;;;;2.60;2.10;;;;;;;;;;1618445;30;22268;-60
2022/08/15 02:30:30;;;;;;;2.75;1.70;;;;;;;;;;1618885;30;22774;-59
2022/08/15 02:31:27;;;;;;;1.90;1.80;;;;;;;;;;1619318;30;21830;-59
2022/08/15 02:32:18;;;;;;;2.22;2.03;;;;;;;;;;1618560;30;21629;-60
2022/08/15 02:33:10;;;;;;;2.60;2.40;;;;;;;;;;1618715;30;21616;-60
2022/08/15 02:34:03;;;;;;;2.25;2.05;;;;;;;;;;1619350;30;21605;-60
2022/08/15 02:34:55;;;;;;;3.65;1.92;;;;;;;;;;1617848;30;21610;-61
2022/08/15 02:35:47;;;;;;;2.13;1.80;;;;;;;;;;1617457;30;21682;-60
2022/08/15 02:36:40;;;;;;;5.05;1.60;;;;;;;;;;1619169;30;22205;-60
2022/08/15 02:37:32;;;;;;;2.17;2.05;;;;;;;;;;1618305;30;21684;-61
2022/08/15 02:38:24;;;;;;;2.40;1.90;;;;;;;;;;1618830;30;22173;-59
2022/08/15 02:39:16;;;;;;;3.53;1.85;;;;;;;;;;1619280;30;21610;-60
2022/08/15 02:40:13;;;;;;;2.33;2.13;;;;;;;;;;1618412;30;21775;-60
2022/08/15 02:41:05;;;;;;;2.08;1.98;;;;;;;;;;1618935;30;22119;-60
2022/08/15 02:41:58;;;;;;;1.80;1.70;;;;;;;;;;1618911;30;21594;-60
2022/08/15 02:42:50;;;;;;;12.77;2.28;;;;;;;;;;1618295;30;22063;-59
2022/08/15 02:43:45;;;;;;;2.65;1.98;;;;;;;;;;1618200;30;22283;-60
2022/08/15 02:44:37;;;;;;;3.80;1.80;;;;;;;;;;1619308;30;21733;-60
2022/08/15 02:45:31;;;;;;;2.05;1.85;;;;;;;;;;1623618;30;21748;-60
2022/08/15 02:46:23;;;;;;;1.67;1.58;;;;;;;;;;1623564;30;22187;-60
2022/08/15 02:47:15;;;;;;;2.03;1.80;;;;;;;;;;1618588;30;21619;-59
2022/08/15 02:48:09;;;;;;;1.90;1.80;;;;;;;;;;1615416;30;21892;-61
2022/08/15 02:49:01;;;;;;;5.40;1.60;;;;;;;;;;1618502;30;21755;-59
2022/08/15 02:49:53;;;;;;;2.00;1.90;;;;;;;;;;1615207;30;22029;-60
2022/08/15 02:50:45;;;;;;;1.67;1.58;;;;;;;;;;1617854;30;21614;-60
2022/08/15 02:51:39;;;;;;;1.90;1.80;;;;;;;;;;1618891;30;21677;-60
2022/08/15 02:52:30;;;;;;;2.03;1.92;;;;;;;;;;1618158;30;21762;-60
2022/08/15 02:53:22;;;;;;;1.90;1.80;;;;;;;;;;1619096;30;22471;-60
2022/08/15 02:54:15;;;;;;;1.75;1.60;;;;;;;;;;1619567;30;21889;-60
2022/08/15 02:55:10;;;;;;;3.22;1.52;;;;;;;;;;1618728;30;22513;-60
2022/08/15 02:56:02;;;;;;;1.70;1.60;;;;;;;;;;1619164;30;21602;-61
2022/08/15 02:56:57;;;;;;;1.90;1.80;;;;;;;;;;1617726;30;21691;-59
2022/08/15 02:57:48;;;;;;;1.95;1.73;;;;;;;;;;1618141;30;21714;-60
2022/08/15 02:58:40;;;;;;;2.05;1.85;;;;;;;;;;1619094;30;21640;-60
2022/08/15 02:59:33;;;;;;;1.90;1.80;;;;;;;;;;1618198;30;22176;-61
2022/08/15 03:00:24;;;;;;;2.03;1.85;;;;;;;;;;1618282;30;22216;-60
2022/08/15 03:01:19;;;;;;;1.67;1.58;;;;;;;;;;1619289;30;22242;-59
2022/08/15 03:02:10;;;;;;;2.40;1.80;;;;;;;;;;1618107;30;21719;-60
2022/08/15 03:03:06;;;;;;;1.85;1.75;;;;;;;;;;1618455;30;21608;-60
2022/08/15 03:03:57;;;;;;;1.75;1.65;;;;;;;;;;1619034;30;22108;-60
2022/08/15 03:04:50;;;;;;;2.08;1.88;;;;;;;;;;1618098;30;21639;-60
2022/08/15 03:05:46;;;;;;;1.48;1.38;;;;;;;;;;1618599;30;22678;-60
2022/08/15 03:06:38;;;;;;;1.60;1.50;;;;;;;;;;1619183;30;21692;-60
2022/08/15 03:07:30;;;;;;;1.60;1.50;;;;;;;;;;1618655;30;22439;-60
2022/08/15 03:08:22;;;;;;;1.80;1.70;;;;;;;;;;1618289;30;21872;-60
2022/08/15 03:09:15;;;;;;;1.90;1.80;;;;;;;;;;1619279;30;21690;-60
2022/08/15 03:10:08;;;;;;;1.67;1.58;;;;;;;;;;1618045;30;21588;-60
2022/08/15 03:10:59;;;;;;;1.85;1.75;;;;;;;;;;1618636;30;22004;-60
2022/08/15 03:11:52;;;;;;;1.50;1.40;;;;;;;;;;1615973;30;21605;-60
2022/08/15 03:12:53;;;;;;;1.63;1.52;;;;;;;;;;1618750;30;21787;-60
2022/08/15 03:13:45;;;;;;;1.77;1.67;;;;;;;;;;1618685;30;21763;-60
2022/08/15 03:14:37;;;;;;;1.55;1.45;;;;;;;;;;1619128;30;21684;-60
2022/08/15 03:15:32;;;;;;;2.60;1.40;;;;;;;;;;1618159;30;22006;-59
2022/08/15 03:16:24;;;;;;;1.60;1.50;;;;;;;;;;1618648;30;21927;-59
2022/08/15 03:17:16;;;;;;;1.60;1.50;;;;;;;;;;1617898;30;22129;-60
2022/08/15 03:18:08;;;;;;;1.55;1.45;;;;;;;;;;1618865;30;22528;-60
2022/08/15 03:19:01;;;;;;;1.98;1.88;;;;;;;;;;1618152;30;21656;-59
2022/08/15 03:19:53;;;;;;;1.35;1.25;;;;;;;;;;1616030;30;21591;-60
2022/08/15 03:20:46;;;;;;;1.27;1.27;;;;;;;;;;1619165;30;22567;-60
2022/08/15 03:21:37;;;;;;;1.67;1.58;;;;;;;;;;1619072;30;22607;-60
2022/08/15 03:22:41;;;;;;;1.92;1.83;;;;;;;;;;1617810;30;21757;-60
2022/08/15 03:23:34;;;;;;;1.73;1.63;;;;;;;;;;1612099;30;21655;-60
2022/08/15 03:24:26;;;;;;;1.50;1.40;;;;;;;;;;1617510;30;21607;-60
2022/08/15 03:25:18;;;;;;;1.80;1.48;;;;;;;;;;1617711;30;21659;-60
2022/08/15 03:26:12;;;;;;;1.90;1.80;;;;;;;;;;1619232;30;22021;-60
2022/08/15 03:27:05;;;;;;;2.88;1.70;;;;;;;;;;1617787;30;22674;-59
2022/08/15 03:27:58;;;;;;;1.70;1.60;;;;;;;;;;1617511;30;21619;-60
2022/08/15 03:28:49;;;;;;;1.60;1.10;;;;;;;;;;1618671;30;21978;-60
2022/08/15 03:29:41;;;;;;;1.52;1.42;;;;;;;;;;1618272;30;21866;-59
2022/08/15 03:30:33;;;;;;;1.65;1.55;;;;;;;;;;1617747;30;21607;-60
2022/08/15 03:31:25;;;;;;;3.42;1.42;;;;;;;;;;1619233;30;22391;-60
2022/08/15 03:32:16;;;;;;;2.08;1.48;;;;;;;;;;1618039;30;21666;-60
2022/08/15 03:33:09;;;;;;;3.65;1.58;;;;;;;;;;1618601;30;21666;-60
2022/08/15 03:34:00;;;;;;;2.25;1.73;;;;;;;;;;1618885;30;21652;-61
2022/08/15 03:34:52;;;;;;;1.80;1.70;;;;;;;;;;1617573;30;21982;-59
2022/08/15 03:35:47;;;;;;;2.25;1.67;;;;;;;;;;1618395;30;21665;-59
2022/08/15 03:36:44;;;;;;;1.63;1.52;;;;;;;;;;1619187;30;22631;-59
2022/08/15 03:37:36;;;;;;;1.60;1.50;;;;;;;;;;1618574;30;21604;-59
2022/08/15 03:38:28;;;;;;;1.55;1.45;;;;;;;;;;1617931;30;21845;-59
2022/08/15 03:39:20;;;;;;;1.52;1.42;;;;;;;;;;1619150;30;21655;-60
2022/08/15 03:40:13;;;;;;;2.45;1.38;;;;;;;;;;1618090;30;22382;-61
2022/08/15 03:41:08;;;;;;;1.42;1.33;;;;;;;;;;1617841;30;21624;-60
2022/08/15 03:42:09;;;;;;;1.55;1.45;;;;;;;;;;1618689;30;22355;-60
2022/08/15 03:43:06;;;;;;;1.70;1.60;;;;;;;;;;1618133;30;22152;-60
2022/08/15 03:43:58;;;;;;;2.83;1.63;;;;;;;;;;1618850;30;22560;-60
2022/08/15 03:44:49;;;;;;;1.65;1.55;;;;;;;;;;1613503;30;22540;-59
2022/08/15 03:45:45;;;;;;;1.75;1.60;;;;;;;;;;1616061;30;21605;-60
2022/08/15 03:46:37;;;;;;;1.27;1.27;;;;;;;;;;1618395;30;21659;-60
2022/08/15 03:47:30;;;;;;;1.90;1.48;;;;;;;;;;1618540;30;21619;-60
2022/08/15 03:48:26;;;;;;;1.70;1.60;;;;;;;;;;1618071;30;21681;-60
2022/08/15 03:49:18;;;;;;;1.60;1.50;;;;;;;;;;1618475;30;22628;-60
2022/08/15 03:50:10;;;;;;;1.55;1.30;;;;;;;;;;1618932;30;21726;-59
2022/08/15 03:51:05;;;;;;;1.25;1.25;;;;;;;;;;1618252;30;21587;-60
2022/08/15 03:51:56;;;;;;;1.58;1.48;;;;;;;;;;1617832;30;21619;-59
2022/08/15 03:52:52;;;;;;;1.63;1.45;;;;;;;;;;1613466;30;22649;-60
2022/08/15 03:53:46;;;;;;;1.50;1.40;;;;;;;;;;1614390;30;22568;-60
2022/08/15 03:54:39;;;;;;;2.40;1.48;;;;;;;;;;1618603;30;22705;-59
2022/08/15 03:55:33;;;;;;;1.80;1.70;;;;;;;;;;1618803;30;21677;-60
2022/08/15 03:56:28;;;;;;;1.73;1.63;;;;;;;;;;1618371;30;22231;-59
2022/08/15 03:57:20;;;;;;;1.45;1.42;;;;;;;;;;1616720;30;21633;-60
2022/08/15 03:58:13;;;;;;;1.42;1.33;;;;;;;;;;1618242;30;21842;-60
2022/08/15 03:59:05;;;;;;;1.85;1.30;;;;;;;;;;1618400;30;22075;-60
2022/08/15 03:59:56;;;;;;;1.73;1.60;;;;;;;;;;1617418;30;21598;-59
2022/08/15 04:00:49;;;;;;;1.85;1.50;;;;;;;;;;1615707;30;22404;-59
2022/08/15 04:01:42;;;;;;;1.33;1.23;;;;;;;;;;1619103;30;21641;-60
2022/08/15 04:02:34;;;;;;;1.58;1.48;;;;;;;;;;1618351;30;21854;-60
2022/08/15 04:03:30;;;;;;;1.60;1.50;;;;;;;;;;1618592;30;21654;-60
2022/08/15 04:04:21;;;;;;;1.42;1.33;;;;;;;;;;1618899;30;21781;-60
2022/08/15 04:05:13;;;;;;;3.08;1.40;;;;;;;;;;1617727;30;21596;-60
2022/08/15 04:06:09;;;;;;;1.33;1.23;;;;;;;;;;1618858;30;21602;-60
2022/08/15 04:07:03;;;;;;;1.13;1.13;;;;;;;;;;1612905;30;21631;-60
2022/08/15 04:07:54;;;;;;;2.25;1.20;;;;;;;;;;1618036;29;21986;-60
2022/08/15 04:08:49;;;;;;;1.52;1.42;;;;;;;;;;1620548;30;21999;-59
2022/08/15 04:09:40;;;;;;;1.60;1.50;;;;;;;;;;1612605;30;21785;-61
2022/08/15 04:10:34;;;;;;;1.42;1.33;;;;;;;;;;1617754;30;22421;-60
2022/08/15 04:11:29;;;;;;;1.25;1.25;;;;;;;;;;1614851;30;22496;-60
2022/08/15 04:12:30;;;;;;;1.38;1.27;;;;;;;;;;1612657;30;21605;-60
2022/08/15 04:13:25;;;;;;;1.50;1.40;;;;;;;;;;1613612;30;21658;-60
2022/08/15 04:14:18;;;;;;;2.25;1.40;;;;;;;;;;1618538;30;21589;-60
2022/08/15 04:15:12;;;;;;;1.50;1.40;;;;;;;;;;1618405;30;22254;-60
2022/08/15 04:16:03;;;;;;;2.22;1.30;;;;;;;;;;1614866;30;21714;-59
2022/08/15 04:16:57;;;;;;;1.60;1.50;;;;;;;;;;1617930;30;21894;-59
2022/08/15 04:17:48;;;;;;;1.08;1.08;;;;;;;;;;1617756;30;22535;-59
2022/08/15 04:18:41;;;;;;;1.50;1.40;;;;;;;;;;1618298;30;21654;-60
2022/08/15 04:19:33;;;;;;;1.40;1.30;;;;;;;;;;1620061;30;21600;-60
2022/08/15 04:20:25;;;;;;;1.00;1.00;;;;;;;;;;1618359;30;21983;-60
2022/08/15 04:21:17;;;;;;;1.38;1.27;;;;;;;;;;1618395;30;21591;-60
2022/08/15 04:22:09;;;;;;;1.60;1.50;;;;;;;;;;1618397;30;22029;-60
2022/08/15 04:23:00;;;;;;;1.33;1.23;;;;;;;;;;1618750;30;22222;-60
2022/08/15 04:23:52;;;;;;;1.23;1.23;;;;;;;;;;1618347;30;21632;-59
2022/08/15 04:24:43;;;;;;;1.52;1.42;;;;;;;;;;1617624;30;21703;-59
2022/08/15 04:25:39;;;;;;;1.10;1.00;;;;;;;;;;1618846;30;22156;-60
2022/08/15 04:26:30;;;;;;;1.30;1.25;;;;;;;;;;1618796;30;21629;-60
2022/08/15 04:27:22;;;;;;;1.63;1.15;;;;;;;;;;1618023;30;21647;-60
2022/08/15 04:28:17;;;;;;;1.30;1.20;;;;;;;;;;1618560;30;22217;-59
2022/08/15 04:29:10;;;;;;;2.65;1.25;;;;;;;;;;1617732;30;21976;-60
2022/08/15 04:30:03;;;;;;;2.05;1.15;;;;;;;;;;1618332;30;21954;-60
2022/08/15 04:30:55;;;;;;;1.58;1.48;;;;;;;;;;1618509;30;21886;-60
2022/08/15 04:31:47;;;;;;;3.85;1.48;;;;;;;;;;1619434;30;21591;-59
2022/08/15 04:32:39;;;;;;;1.35;1.25;;;;;;;;;;1618238;30;21626;-60
2022/08/15 04:33:33;;;;;;;1.38;1.27;;;;;;;;;;1618833;30;21596;-60
2022/08/15 04:34:25;;;;;;;1.17;1.13;;;;;;;;;;1618366;30;21606;-60
2022/08/15 04:35:17;;;;;;;1.20;1.10;;;;;;;;;;1617527;30;22196;-60
2022/08/15 04:36:11;;;;;;;1.25;1.20;;;;;;;;;;1620388;30;21668;-59
2022/08/15 04:37:03;;;;;;;1.13;1.10;;;;;;;;;;1619406;30;21846;-61
2022/08/15 04:37:55;;;;;;;1.13;1.13;;;;;;;;;;1618601;30;21585;-60
2022/08/15 04:38:51;;;;;;;1.20;1.20;;;;;;;;;;1619616;30;22582;-60
2022/08/15 04:39:42;;;;;;;1.40;1.30;;;;;;;;;;1613927;30;21948;-60
2022/08/15 04:40:35;;;;;;;1.50;1.40;;;;;;;;;;1618985;30;21570;-60
2022/08/15 04:41:30;;;;;;;1.30;1.20;;;;;;;;;;1621185;30;21683;-58
2022/08/15 04:42:24;;;;;;;1.50;1.40;;;;;;;;;;1620904;30;21732;-60
2022/08/15 04:43:18;;;;;;;1.20;1.20;;;;;;;;;;1618951;30;21723;-60
2022/08/15 04:44:11;;;;;;;2.25;1.20;;;;;;;;;;1615178;30;21827;-59
2022/08/15 04:45:03;;;;;;;1.10;1.10;;;;;;;;;;1619709;30;21615;-59
2022/08/15 04:45:56;;;;;;;1.40;1.30;;;;;;;;;;1618446;30;22284;-60
2022/08/15 04:46:47;;;;;;;1.42;1.33;;;;;;;;;;1616791;30;21668;-60
2022/08/15 04:47:39;;;;;;;1.48;1.13;;;;;;;;;;1619246;30;21645;-61
2022/08/15 04:48:31;;;;;;;1.70;1.60;;;;;;;;;;1619091;30;21645;-60
2022/08/15 04:49:23;;;;;;;1.10;1.10;;;;;;;;;;1618999;30;21612;-59
2022/08/15 04:50:14;;;;;;;1.30;1.20;;;;;;;;;;1619737;30;21888;-59
2022/08/15 04:51:07;;;;;;;2.42;1.20;;;;;;;;;;1618827;30;21724;-60
2022/08/15 04:52:08;;;;;;;1.15;1.10;;;;;;;;;;1618901;30;22093;-59
2022/08/15 04:53:00;;;;;;;1.40;1.30;;;;;;;;;;1619518;30;21936;-59
2022/08/15 04:53:51;;;;;;;1.30;1.20;;;;;;;;;;1618720;30;21745;-60
2022/08/15 04:54:45;;;;;;;1.48;1.35;;;;;;;;;;1619630;30;22160;-60
2022/08/15 04:55:41;;;;;;;1.35;1.35;;;;;;;;;;1619800;30;21939;-60
2022/08/15 04:56:33;;;;;;;1.75;1.33;;;;;;;;;;1618833;30;21715;-60
2022/08/15 04:57:25;;;;;;;0.90;0.90;;;;;;;;;;1618753;30;21923;-61
2022/08/15 04:58:17;;;;;;;1.83;1.40;;;;;;;;;;1619589;30;22009;-60
2022/08/15 04:59:10;;;;;;;1.13;1.10;;;;;;;;;;1619852;30;21652;-60
2022/08/15 05:00:05;;;;;;;1.20;1.20;;;;;;;;;;1618784;30;21892;-59
2022/08/15 05:00:59;;;;;;;3.00;1.35;;;;;;;;;;1619344;30;22530;-60
2022/08/15 05:01:51;;;;;;;1.60;1.30;;;;;;;;;;1618672;30;21648;-59
2022/08/15 05:02:56;;;;;;;1.30;1.20;;;;;;;;;;1619149;30;21668;-60
2022/08/15 05:03:49;;;;;;;4.97;1.17;;;;;;;;;;1619319;30;21978;-60
2022/08/15 05:04:40;;;;;;;1.33;1.23;;;;;;;;;;1618749;30;21910;-60
2022/08/15 05:05:35;;;;;;;1.40;1.30;;;;;;;;;;1619109;30;21644;-59
2022/08/15 05:06:26;;;;;;;1.35;1.30;;;;;;;;;;1619756;30;22202;-60
2022/08/15 05:07:19;;;;;;;0.90;0.90;;;;;;;;;;1618716;30;21774;-60
2022/08/15 05:08:11;;;;;;;1.38;1.27;;;;;;;;;;1618904;30;21715;-60
2022/08/15 05:09:04;;;;;;;1.70;1.33;;;;;;;;;;1618748;30;21619;-60
2022/08/15 05:09:55;;;;;;;2.53;1.23;;;;;;;;;;1618134;30;22005;-60
2022/08/15 05:10:54;;;;;;;1.65;1.55;;;;;;;;;;1618798;30;22621;-60
2022/08/15 05:11:46;;;;;;;1.67;1.20;;;;;;;;;;1616695;30;21860;-60
2022/08/15 05:12:38;;;;;;;1.05;1.02;;;;;;;;;;1618801;30;22573;-60
2022/08/15 05:13:33;;;;;;;1.00;1.00;;;;;;;;;;1619752;30;22442;-59
2022/08/15 05:14:26;;;;;;;1.92;1.48;;;;;;;;;;1618548;30;21844;-60
2022/08/15 05:15:20;;;;;;;1.38;1.27;;;;;;;;;;1620781;30;21727;-60
2022/08/15 05:16:13;;;;;;;1.00;1.00;;;;;;;;;;1618819;30;21612;-60
2022/08/15 05:17:04;;;;;;;1.08;0.98;;;;;;;;;;1618683;30;21713;-60
2022/08/15 05:17:57;;;;;;;1.45;1.35;;;;;;;;;;1618188;30;21591;-60
2022/08/15 05:18:48;;;;;;;1.20;1.20;;;;;;;;;;1619542;30;21644;-60
2022/08/15 05:19:40;;;;;;;1.02;1.00;;;;;;;;;;1618295;30;21793;-59
2022/08/15 05:20:31;;;;;;;1.42;1.40;;;;;;;;;;1619505;30;22517;-60
2022/08/15 05:21:24;;;;;;;1.30;1.15;;;;;;;;;;1618972;30;22441;-60
2022/08/15 05:22:17;;;;;;;3.15;1.10;;;;;;;;;;1619364;30;21675;-60
2022/08/15 05:23:13;;;;;;;1.27;1.20;;;;;;;;;;1619480;30;21647;-60
2022/08/15 05:24:05;;;;;;;1.30;1.20;;;;;;;;;;1618733;30;22596;-60
2022/08/15 05:24:58;;;;;;;4.55;1.50;;;;;;;;;;1618985;30;22606;-60